sensor_id;sensor_type;location;lat;lon;timestamp;pressure;altitude;pressure_sealevel;temperature;humidity
24746;BME280;12845;52.042;6.838;2022-08-20T00:02:05;68989.91;;;19.97;100.00
24746;BME280;12845;52.042;6.838;2022-08-20T00:06:56;68985.34;;;19.93;100.00
24746;BME280;12845;52.042;6.838;2022-08-20T00:11:46;68987.31;;;19.90;100.00
24746;BME280;12845;52.042;6.838;2022-08-20T00:14:12;68985.34;;;19.93;100.00
24746;BME280;12845;52.042;6.838;2022-08-20T00:16:37;68977.34;;;19.86;100.00
24746;BME280;12845;52.042;6.838;2022-08-20T00:19:06;68975.63;;;19.84;100.00
24746;BME280;12845;52.042;6.838;2022-08-20T00:21:32;68983.06;;;19.91;100.00
24746;BME280;12845;52.042;6.838;2022-08-20T00:26:24;68975.63;;;19.84;100.00
24746;BME280;12845;52.042;6.838;2022-08-20T00:28:50;68970.66;;;19.82;100.00
24746;BME280;12845;52.042;6.838;2022-08-20T00:31:17;68975.06;;;19.84;100.00
24746;BME280;12845;52.042;6.838;2022-08-20T00:33:44;68968.75;;;19.78;100.00
24746;BME280;12845;52.042;6.838;2022-08-20T00:36:10;68955.94;;;19.72;100.00
24746;BME280;12845;52.042;6.838;2022-08-20T00:38:41;68961.91;;;19.72;100.00
24746;BME280;12845;52.042;6.838;2022-08-20T00:41:12;68962.47;;;19.73;100.00
24746;BME280;12845;52.042;6.838;2022-08-20T00:43:41;68965.34;;;19.75;100.00
24746;BME280;12845;52.042;6.838;2022-08-20T00:46:17;68965.34;;;19.75;100.00
24746;BME280;12845;52.042;6.838;2022-08-20T00:53:43;68963.88;;;19.69;100.00
24746;BME280;12845;52.042;6.838;2022-08-20T00:56:10;68949.31;;;19.61;100.00
24746;BME280;12845;52.042;6.838;2022-08-20T00:58:37;68949.88;;;19.61;100.00
24746;BME280;12845;52.042;6.838;2022-08-20T01:01:05;68955.63;;;19.67;100.00
24746;BME280;12845;52.042;6.838;2022-08-20T01:03:31;68960.28;;;19.64;100.00
24746;BME280;12845;52.042;6.838;2022-08-20T01:05:57;68951.34;;;19.68;100.00
24746;BME280;12845;52.042;6.838;2022-08-20T01:08:22;68967.88;;;19.73;100.00
24746;BME280;12845;52.042;6.838;2022-08-20T01:10:52;68960.78;;;19.71;100.00
24746;BME280;12845;52.042;6.838;2022-08-20T01:13:31;68959.06;;;19.70;100.00
24746;BME280;12845;52.042;6.838;2022-08-20T01:18:26;68949.66;;;19.66;100.00
24746;BME280;12845;52.042;6.838;2022-08-20T01:20:58;68952.19;;;19.64;100.00
24746;BME280;12845;52.042;6.838;2022-08-20T01:26:02;68951.59;;;19.63;100.00
24746;BME280;12845;52.042;6.838;2022-08-20T01:28:37;68949.88;;;19.61;100.00
24746;BME280;12845;52.042;6.838;2022-08-20T01:33:29;68941.91;;;19.54;100.00
24746;BME280;12845;52.042;6.838;2022-08-20T01:35:56;68944.19;;;19.56;100.00
24746;BME280;12845;52.042;6.838;2022-08-20T01:45:53;68939.59;;;19.52;100.00
24746;BME280;12845;52.042;6.838;2022-08-20T01:50:52;68936.19;;;19.49;100.00
24746;BME280;12845;52.042;6.838;2022-08-20T01:58:14;68926.47;;;19.41;100.00
24746;BME280;12845;52.042;6.838;2022-08-20T02:00:40;68926.47;;;19.41;100.00
24746;BME280;12845;52.042;6.838;2022-08-20T02:03:05;68928.19;;;19.42;100.00
24746;BME280;12845;52.042;6.838;2022-08-20T02:05:32;68933.59;;;19.42;100.00
24746;BME280;12845;52.042;6.838;2022-08-20T02:12:49;68923.59;;;19.38;100.00
24746;BME280;12845;52.042;6.838;2022-08-20T02:17:41;68919.03;;;19.34;100.00
24746;BME280;12845;52.042;6.838;2022-08-20T02:20:08;68926.16;;;19.35;100.00
24746;BME280;12845;52.042;6.838;2022-08-20T02:25:05;68919.28;;;19.29;100.00
24746;BME280;12845;52.042;6.838;2022-08-20T02:27:32;68917.31;;;19.32;100.00
24746;BME280;12845;52.042;6.838;2022-08-20T02:29:57;68915.88;;;19.26;100.00
24746;BME280;12845;52.042;6.838;2022-08-20T02:32:23;68914.13;;;19.25;100.00
24746;BME280;12845;52.042;6.838;2022-08-20T02:34:48;68900.75;;;19.17;100.00
24746;BME280;12845;52.042;6.838;2022-08-20T02:37:14;68905.91;;;19.22;100.00
24746;BME280;12845;52.042;6.838;2022-08-20T02:39:41;68901.31;;;19.18;100.00
24746;BME280;12845;52.042;6.838;2022-08-20T02:42:07;68893.50;;;19.13;100.00
24746;BME280;12845;52.042;6.838;2022-08-20T02:44:33;68898.16;;;19.10;100.00
24746;BME280;12845;52.042;6.838;2022-08-20T02:49:25;68890.47;;;19.08;100.00
24746;BME280;12845;52.042;6.838;2022-08-20T02:51:50;68903.63;;;19.20;100.00
24746;BME280;12845;52.042;6.838;2022-08-20T02:54:15;68907.28;;;19.19;100.00
24746;BME280;12845;52.042;6.838;2022-08-20T02:56:41;68906.16;;;19.17;100.00
24746;BME280;12845;52.042;6.838;2022-08-20T02:59:08;68895.59;;;19.13;100.00
24746;BME280;12845;52.042;6.838;2022-08-20T03:01:33;68903.03;;;19.20;100.00
24746;BME280;12845;52.042;6.838;2022-08-20T03:03:58;68911.16;;;19.20;100.00
24746;BME280;12845;52.042;6.838;2022-08-20T03:08:50;68892.19;;;19.10;100.00
24746;BME280;12845;52.042;6.838;2022-08-20T03:21:01;68892.78;;;19.10;100.00
24746;BME280;12845;52.042;6.838;2022-08-20T03:23:27;68883.19;;;19.04;100.00
24746;BME280;12845;52.042;6.838;2022-08-20T03:30:44;68880.44;;;18.94;100.00
24746;BME280;12845;52.042;6.838;2022-08-20T03:35:35;68877.34;;;18.97;100.00
24746;BME280;12845;52.042;6.838;2022-08-20T03:38:05;68863.22;;;18.86;100.00
24746;BME280;12845;52.042;6.838;2022-08-20T03:42:58;68866.19;;;18.82;100.00
24746;BME280;12845;52.042;6.838;2022-08-20T03:47:50;68857.34;;;18.79;100.00
24746;BME280;12845;52.042;6.838;2022-08-20T03:57:34;68845.34;;;18.68;100.00
24746;BME280;12845;52.042;6.838;2022-08-20T04:02:26;68841.34;;;18.64;100.00
24746;BME280;12845;52.042;6.838;2022-08-20T04:04:52;68844.78;;;18.67;100.00
24746;BME280;12845;52.042;6.838;2022-08-20T04:09:50;68865.91;;;18.86;100.00
24746;BME280;12845;52.042;6.838;2022-08-20T04:12:17;68865.34;;;18.86;100.00
24746;BME280;12845;52.042;6.838;2022-08-20T04:17:09;68861.59;;;18.78;100.00
24746;BME280;12845;52.042;6.838;2022-08-20T04:19:36;68853.59;;;18.70;100.00
24746;BME280;12845;52.042;6.838;2022-08-20T04:24:28;68845.03;;;18.63;100.00
24746;BME280;12845;52.042;6.838;2022-08-20T04:26:54;68848.19;;;18.70;100.00
24746;BME280;12845;52.042;6.838;2022-08-20T04:31:50;68852.88;;;18.67;100.00
24746;BME280;12845;52.042;6.838;2022-08-20T04:34:16;68851.88;;;18.69;100.00
24746;BME280;12845;52.042;6.838;2022-08-20T04:36:45;68848.19;;;18.70;100.00
24746;BME280;12845;52.042;6.838;2022-08-20T04:39:14;68847.03;;;18.69;100.00
24746;BME280;12845;52.042;6.838;2022-08-20T04:41:40;68850.16;;;18.67;100.00
24746;BME280;12845;52.042;6.838;2022-08-20T04:44:07;68839.63;;;18.63;100.00
24746;BME280;12845;52.042;6.838;2022-08-20T04:46:33;68822.09;;;18.49;100.00
24746;BME280;12845;52.042;6.838;2022-08-20T04:48:59;68835.06;;;18.59;100.00
24746;BME280;12845;52.042;6.838;2022-08-20T04:53:53;68818.50;;;18.44;100.00
24746;BME280;12845;52.042;6.838;2022-08-20T04:56:21;68812.81;;;18.39;100.00
24746;BME280;12845;52.042;6.838;2022-08-20T04:58:50;68817.94;;;18.43;100.00
24746;BME280;12845;52.042;6.838;2022-08-20T05:06:09;68810.50;;;18.37;100.00
24746;BME280;12845;52.042;6.838;2022-08-20T05:08:36;68818.50;;;18.44;100.00
24746;BME280;12845;52.042;6.838;2022-08-20T05:11:03;68816.78;;;18.42;100.00
24746;BME280;12845;52.042;6.838;2022-08-20T05:13:29;68824.78;;;18.49;100.00
24746;BME280;12845;52.042;6.838;2022-08-20T05:15:55;68827.63;;;18.52;100.00
24746;BME280;12845;52.042;6.838;2022-08-20T05:18:23;68818.50;;;18.44;100.00
24746;BME280;12845;52.042;6.838;2022-08-20T05:20:50;68816.22;;;18.42;100.00
24746;BME280;12845;52.042;6.838;2022-08-20T05:28:12;68813.38;;;18.39;100.00
24746;BME280;12845;52.042;6.838;2022-08-20T05:38:03;68831.06;;;18.55;100.00
24746;BME280;12845;52.042;6.838;2022-08-20T05:40:29;68827.63;;;18.52;100.00
24746;BME280;12845;52.042;6.838;2022-08-20T05:45:20;68844.78;;;18.67;100.00
24746;BME280;12845;52.042;6.838;2022-08-20T05:47:46;68854.72;;;18.71;100.00
24746;BME280;12845;52.042;6.838;2022-08-20T05:52:39;68852.94;;;18.77;100.00
24746;BME280;12845;52.042;6.838;2022-08-20T05:57:30;68868.78;;;18.89;100.00
24746;BME280;12845;52.042;6.838;2022-08-20T05:59:56;68878.06;;;19.00;100.00
24746;BME280;12845;52.042;6.838;2022-08-20T06:02:23;68885.34;;;19.04;100.00
24746;BME280;12845;52.042;6.838;2022-08-20T06:05:07;68883.63;;;19.02;100.00
24746;BME280;12845;52.042;6.838;2022-08-20T06:07:33;68894.47;;;19.12;100.00
24746;BME280;12845;52.042;6.838;2022-08-20T06:09:59;68900.34;;;19.20;100.00
24746;BME280;12845;52.042;6.838;2022-08-20T06:12:24;68901.31;;;19.18;100.00
24746;BME280;12845;52.042;6.838;2022-08-20T06:14:50;68894.63;;;19.14;100.00
24746;BME280;12845;52.042;6.838;2022-08-20T06:19:43;68887.88;;;19.01;100.00
24746;BME280;12845;52.042;6.838;2022-08-20T06:22:09;68873.50;;;18.96;100.00
24746;BME280;12845;52.042;6.838;2022-08-20T06:24:34;68866.06;;;18.89;100.00
24746;BME280;12845;52.042;6.838;2022-08-20T06:29:27;68871.06;;;18.91;100.00
24746;BME280;12845;52.042;6.838;2022-08-20T06:36:44;68873.34;;;18.93;100.00
24746;BME280;12845;52.042;6.838;2022-08-20T06:39:13;68867.22;;;18.90;100.00
24746;BME280;12845;52.042;6.838;2022-08-20T06:44:05;68860.78;;;18.82;100.00
24746;BME280;12845;52.042;6.838;2022-08-20T06:46:32;68860.19;;;18.81;100.00
24746;BME280;12845;52.042;6.838;2022-08-20T06:56:14;68863.06;;;18.84;100.00
24746;BME280;12845;52.042;6.838;2022-08-20T06:58:39;68852.38;;;18.77;100.00
24746;BME280;12845;52.042;6.838;2022-08-20T07:01:06;68853.91;;;18.76;100.00
24746;BME280;12845;52.042;6.838;2022-08-20T07:03:32;68856.22;;;18.78;100.00
24746;BME280;12845;52.042;6.838;2022-08-20T07:05:58;68867.81;;;18.90;100.00
24746;BME280;12845;52.042;6.838;2022-08-20T07:08:23;68866.47;;;18.87;100.00
24746;BME280;12845;52.042;6.838;2022-08-20T07:10:49;68867.88;;;18.83;100.00
24746;BME280;12845;52.042;6.838;2022-08-20T07:13:15;68865.34;;;18.86;100.00
24746;BME280;12845;52.042;6.838;2022-08-20T07:15:42;68854.50;;;18.76;100.00
24746;BME280;12845;52.042;6.838;2022-08-20T07:20:36;68852.53;;;18.79;100.00
24746;BME280;12845;52.042;6.838;2022-08-20T07:23:02;68869.03;;;18.84;100.00
24746;BME280;12845;52.042;6.838;2022-08-20T07:25:29;68869.91;;;18.90;100.00
24746;BME280;12845;52.042;6.838;2022-08-20T07:30:26;68887.06;;;19.05;100.00
24746;BME280;12845;52.042;6.838;2022-08-20T07:35:39;68892.34;;;19.12;100.00
24746;BME280;12845;52.042;6.838;2022-08-20T07:38:05;68898.78;;;19.21;100.00
24746;BME280;12845;52.042;6.838;2022-08-20T07:42:58;68911.88;;;19.23;100.00
24746;BME280;12845;52.042;6.838;2022-08-20T07:45:25;68922.63;;;19.39;100.00
24746;BME280;12845;52.042;6.838;2022-08-20T07:47:51;68943.59;;;19.56;100.00
24746;BME280;12845;52.042;6.838;2022-08-20T07:50:20;68932.75;;;19.46;100.00
24746;BME280;12845;52.042;6.838;2022-08-20T07:52:46;68944.28;;;19.49;100.00
24746;BME280;12845;52.042;6.838;2022-08-20T07:55:14;68939.59;;;19.52;100.00
24746;BME280;12845;52.042;6.838;2022-08-20T07:57:41;68960.19;;;19.71;100.00
24746;BME280;12845;52.042;6.838;2022-08-20T08:00:09;68943.19;;;19.58;100.00
24746;BME280;12845;52.042;6.838;2022-08-20T08:02:35;68957.34;;;19.68;100.00
24746;BME280;12845;52.042;6.838;2022-08-20T08:05:02;68967.63;;;19.77;100.00
24746;BME280;12845;52.042;6.838;2022-08-20T08:07:28;68978.16;;;19.82;100.00
24746;BME280;12845;52.042;6.838;2022-08-20T08:09:55;68974.06;;;19.86;99.78
24746;BME280;12845;52.042;6.838;2022-08-20T08:12:22;68992.19;;;19.99;99.90
24746;BME280;12845;52.042;6.838;2022-08-20T08:14:48;69009.50;;;20.17;97.31
24746;BME280;12845;52.042;6.838;2022-08-20T08:17:16;68997.34;;;20.04;96.92
24746;BME280;12845;52.042;6.838;2022-08-20T08:19:45;68978.22;;;19.92;97.70
24746;BME280;12845;52.042;6.838;2022-08-20T08:24:41;69008.34;;;20.16;97.24
24746;BME280;12845;52.042;6.838;2022-08-20T08:27:08;69043.22;;;20.47;94.46
24746;BME280;12845;52.042;6.838;2022-08-20T08:32:04;69070.72;;;20.72;91.66
24746;BME280;12845;52.042;6.838;2022-08-20T08:34:31;69079.44;;;20.82;89.62
24746;BME280;12845;52.042;6.838;2022-08-20T08:36:56;69098.16;;;20.96;88.79
24746;BME280;12845;52.042;6.838;2022-08-20T08:39:23;69095.28;;;20.94;86.96
24746;BME280;12845;52.042;6.838;2022-08-20T08:41:50;69089.72;;;20.91;86.41
24746;BME280;12845;52.042;6.838;2022-08-20T08:44:51;69090.00;;;20.87;85.42
24746;BME280;12845;52.042;6.838;2022-08-20T08:47:18;69095.13;;;20.91;86.66
24746;BME280;12845;52.042;6.838;2022-08-20T08:54:45;69165.50;;;21.54;84.68
24746;BME280;12845;52.042;6.838;2022-08-20T08:57:11;69156.94;;;21.47;84.13
24746;BME280;12845;52.042;6.838;2022-08-20T08:59:36;69147.78;;;21.38;81.10
24746;BME280;12845;52.042;6.838;2022-08-20T09:02:02;69138.19;;;21.32;80.75
24746;BME280;12845;52.042;6.838;2022-08-20T09:04:39;69128.63;;;21.26;81.39
24746;BME280;12845;52.042;6.838;2022-08-20T09:07:07;69140.91;;;21.32;80.81
24746;BME280;12845;52.042;6.838;2022-08-20T09:09:39;69150.66;;;21.41;80.86
24746;BME280;12845;52.042;6.838;2022-08-20T09:12:12;69168.66;;;21.52;79.93
24746;BME280;12845;52.042;6.838;2022-08-20T09:14:37;69171.25;;;21.59;80.51
24746;BME280;12845;52.042;6.838;2022-08-20T09:17:04;69164.38;;;21.53;79.52
24746;BME280;12845;52.042;6.838;2022-08-20T09:24:21;69156.09;;;21.51;80.58
24746;BME280;12845;52.042;6.838;2022-08-20T09:26:46;69177.53;;;21.65;80.14
24746;BME280;12845;52.042;6.838;2022-08-20T09:29:12;69177.84;;;21.70;78.89
24746;BME280;12845;52.042;6.838;2022-08-20T09:31:37;69170.09;;;21.58;78.40
24746;BME280;12845;52.042;6.838;2022-08-20T09:34:03;69163.38;;;21.55;78.89
24746;BME280;12845;52.042;6.838;2022-08-20T09:36:29;69162.25;;;21.54;77.40
24746;BME280;12845;52.042;6.838;2022-08-20T09:38:54;69166.09;;;21.55;78.07
24746;BME280;12845;52.042;6.838;2022-08-20T09:41:19;69163.38;;;21.55;77.38
24746;BME280;12845;52.042;6.838;2022-08-20T09:43:45;69160.38;;;21.50;77.04
24746;BME280;12845;52.042;6.838;2022-08-20T09:46:10;69147.78;;;21.38;76.44
24746;BME280;12845;52.042;6.838;2022-08-20T09:51:01;69147.22;;;21.38;77.02
24746;BME280;12845;52.042;6.838;2022-08-20T09:53:27;69142.78;;;21.36;76.26
24746;BME280;12845;52.042;6.838;2022-08-20T09:55:54;69143.19;;;21.34;75.94
24746;BME280;12845;52.042;6.838;2022-08-20T10:01:24;69126.34;;;21.24;75.13
24746;BME280;12845;52.042;6.838;2022-08-20T10:03:49;69124.44;;;21.20;75.41
24746;BME280;12845;52.042;6.838;2022-08-20T10:06:19;69114.56;;;21.09;74.59
24746;BME280;12845;52.042;6.838;2022-08-20T10:08:45;69121.03;;;21.17;74.97
24746;BME280;12845;52.042;6.838;2022-08-20T10:13:36;69125.59;;;21.21;73.38
24746;BME280;12845;52.042;6.838;2022-08-20T10:16:01;69130.59;;;21.23;74.34
24746;BME280;12845;52.042;6.838;2022-08-20T10:18:27;69131.75;;;21.24;74.47
24746;BME280;12845;52.042;6.838;2022-08-20T10:20:52;69132.88;;;21.25;74.39
24746;BME280;12845;52.042;6.838;2022-08-20T10:23:18;69137.47;;;21.29;74.97
24746;BME280;12845;52.042;6.838;2022-08-20T10:25:43;69139.50;;;21.36;76.08
24746;BME280;12845;52.042;6.838;2022-08-20T10:30:34;69146.88;;;21.33;75.82
24746;BME280;12845;52.042;6.838;2022-08-20T10:32:59;69147.22;;;21.38;75.06
24746;BME280;12845;52.042;6.838;2022-08-20T10:35:25;69151.22;;;21.42;75.48
24746;BME280;12845;52.042;6.838;2022-08-20T10:37:50;69146.06;;;21.37;75.56
24746;BME280;12845;52.042;6.838;2022-08-20T10:40:16;69143.78;;;21.35;75.97
24746;BME280;12845;52.042;6.838;2022-08-20T10:42:42;69156.34;;;21.46;75.23
24746;BME280;12845;52.042;6.838;2022-08-20T10:45:10;69145.50;;;21.36;75.15
24746;BME280;12845;52.042;6.838;2022-08-20T10:47:35;69154.34;;;21.39;74.73
24746;BME280;12845;52.042;6.838;2022-08-20T10:50:03;69148.94;;;21.39;75.03
24746;BME280;12845;52.042;6.838;2022-08-20T10:54:54;69172.53;;;21.63;74.37
24746;BME280;12845;52.042;6.838;2022-08-20T10:57:25;69172.53;;;21.63;74.29
24746;BME280;12845;52.042;6.838;2022-08-20T10:59:52;69181.69;;;21.71;74.93
24746;BME280;12845;52.042;6.838;2022-08-20T11:02:19;69231.34;;;22.13;74.36
24746;BME280;12845;52.042;6.838;2022-08-20T11:04:45;69253.41;;;22.38;71.39
24746;BME280;12845;52.042;6.838;2022-08-20T11:09:39;69262.41;;;22.43;71.36
24746;BME280;12845;52.042;6.838;2022-08-20T11:12:05;69270.88;;;22.48;72.42
24746;BME280;12845;52.042;6.838;2022-08-20T11:14:30;69315.25;;;22.93;69.39
24746;BME280;12845;52.042;6.838;2022-08-20T11:16:56;69298.63;;;22.78;67.86
24746;BME280;12845;52.042;6.838;2022-08-20T11:19:21;69297.19;;;22.72;67.26
24746;BME280;12845;52.042;6.838;2022-08-20T11:21:46;69328.88;;;23.03;65.41
24746;BME280;12845;52.042;6.838;2022-08-20T11:24:12;69327.59;;;22.99;63.97
24746;BME280;12845;52.042;6.838;2022-08-20T11:26:37;69334.03;;;23.07;63.47
24746;BME280;12845;52.042;6.838;2022-08-20T11:29:02;69338.47;;;23.09;62.23
24746;BME280;12845;52.042;6.838;2022-08-20T11:31:28;69346.06;;;23.18;62.75
24746;BME280;12845;52.042;6.838;2022-08-20T11:33:53;69357.69;;;23.31;59.69
24746;BME280;12845;52.042;6.838;2022-08-20T11:36:19;69363.81;;;23.34;57.61
24746;BME280;12845;52.042;6.838;2022-08-20T11:38:44;69363.81;;;23.34;55.49
24746;BME280;12845;52.042;6.838;2022-08-20T11:41:10;69399.66;;;23.71;56.75
24746;BME280;12845;52.042;6.838;2022-08-20T11:46:00;69454.97;;;24.15;54.74
24746;BME280;12845;52.042;6.838;2022-08-20T11:48:26;69434.75;;;23.95;54.43
24746;BME280;12845;52.042;6.838;2022-08-20T11:50:51;69419.56;;;23.86;55.46
24746;BME280;12845;52.042;6.838;2022-08-20T11:53:16;69418.28;;;23.82;55.48
24746;BME280;12845;52.042;6.838;2022-08-20T11:55:42;69437.78;;;24.00;55.39
24746;BME280;12845;52.042;6.838;2022-08-20T11:58:08;69418.84;;;23.83;54.89
24746;BME280;12845;52.042;6.838;2022-08-20T12:00:33;69410.81;;;23.76;54.27
24746;BME280;12845;52.042;6.838;2022-08-20T12:03:01;69403.22;;;23.67;55.35
24746;BME280;12845;52.042;6.838;2022-08-20T12:05:28;69395.31;;;23.62;53.40
24746;BME280;12845;52.042;6.838;2022-08-20T12:07:54;69410.09;;;23.73;53.56
24746;BME280;12845;52.042;6.838;2022-08-20T12:10:19;69403.53;;;23.72;53.60
24746;BME280;12845;52.042;6.838;2022-08-20T12:12:47;69415.41;;;23.80;54.65
24746;BME280;12845;52.042;6.838;2022-08-20T12:15:12;69397.19;;;23.66;53.31
24746;BME280;12845;52.042;6.838;2022-08-20T12:17:37;69395.91;;;23.62;54.34
24746;BME280;12845;52.042;6.838;2022-08-20T12:20:09;69389.75;;;23.59;54.78
24746;BME280;12845;52.042;6.838;2022-08-20T12:22:35;69408.66;;;23.76;56.40
24746;BME280;12845;52.042;6.838;2022-08-20T12:25:01;69443.94;;;24.03;53.52
24746;BME280;12845;52.042;6.838;2022-08-20T12:27:28;69454.81;;;24.13;53.47
24746;BME280;12845;52.042;6.838;2022-08-20T12:29:56;69473.16;;;24.29;53.85
24746;BME280;12845;52.042;6.838;2022-08-20T12:32:25;69480.75;;;24.38;51.46
24746;BME280;12845;52.042;6.838;2022-08-20T12:34:51;69452.38;;;24.18;51.45
24746;BME280;12845;52.042;6.838;2022-08-20T12:37:19;69440.63;;;24.02;53.66
24746;BME280;12845;52.042;6.838;2022-08-20T12:39:47;69436.03;;;23.98;53.48
24746;BME280;12845;52.042;6.838;2022-08-20T12:42:15;69418.84;;;23.83;53.96
24746;BME280;12845;52.042;6.838;2022-08-20T12:44:41;69409.25;;;23.77;54.65
24746;BME280;12845;52.042;6.838;2022-08-20T12:47:16;69414.56;;;23.84;55.29
24746;BME280;12845;52.042;6.838;2022-08-20T12:49:47;69432.59;;;23.95;53.88
24746;BME280;12845;52.042;6.838;2022-08-20T12:52:14;69446.34;;;24.07;53.48
24746;BME280;12845;52.042;6.838;2022-08-20T12:54:40;69442.19;;;24.01;53.28
24746;BME280;12845;52.042;6.838;2022-08-20T12:57:11;69431.75;;;23.99;53.85
24746;BME280;12845;52.042;6.838;2022-08-20T12:59:37;69429.88;;;23.95;52.78
24746;BME280;12845;52.042;6.838;2022-08-20T13:02:02;69437.63;;;23.97;53.30
24746;BME280;12845;52.042;6.838;2022-08-20T13:04:28;69424.00;;;23.87;53.61
24746;BME280;12845;52.042;6.838;2022-08-20T13:06:59;69425.31;;;23.91;52.13
24746;BME280;12845;52.042;6.838;2022-08-20T13:11:50;69463.56;;;24.23;53.05
24746;BME280;12845;52.042;6.838;2022-08-20T13:14:15;69478.03;;;24.38;51.23
24746;BME280;12845;52.042;6.838;2022-08-20T13:16:40;69452.09;;;24.13;51.63
24746;BME280;12845;52.042;6.838;2022-08-20T13:19:06;69442.34;;;24.04;53.19
24746;BME280;12845;52.042;6.838;2022-08-20T13:21:31;69448.22;;;24.12;52.62
24746;BME280;12845;52.042;6.838;2022-08-20T13:23:57;69488.22;;;24.45;51.95
24746;BME280;12845;52.042;6.838;2022-08-20T13:26:22;69502.13;;;24.60;50.58
24746;BME280;12845;52.042;6.838;2022-08-20T13:31:12;69547.72;;;24.95;50.61
24746;BME280;12845;52.042;6.838;2022-08-20T13:33:38;69545.72;;;24.98;50.13
24746;BME280;12845;52.042;6.838;2022-08-20T13:36:03;69558.91;;;25.10;49.49
24746;BME280;12845;52.042;6.838;2022-08-20T13:38:29;69611.13;;;25.57;49.98
24746;BME280;12845;52.042;6.838;2022-08-20T13:40:55;69628.34;;;25.72;50.55
24746;BME280;12845;52.042;6.838;2022-08-20T13:43:20;69628.78;;;25.70;48.75
24746;BME280;12845;52.042;6.838;2022-08-20T13:45:46;69671.41;;;26.10;50.33
24746;BME280;12845;52.042;6.838;2022-08-20T13:48:11;69659.66;;;26.05;47.29
24746;BME280;12845;52.042;6.838;2022-08-20T13:50:36;69633.38;;;25.74;47.66
24746;BME280;12845;52.042;6.838;2022-08-20T13:53:02;69596.66;;;25.41;49.58
24746;BME280;12845;52.042;6.838;2022-08-20T13:55:28;69624.91;;;25.69;51.30
24746;BME280;12845;52.042;6.838;2022-08-20T13:57:55;69697.81;;;26.34;49.29
24746;BME280;12845;52.042;6.838;2022-08-20T14:00:27;69670.84;;;26.10;47.92
24746;BME280;12845;52.042;6.838;2022-08-20T14:02:53;69710.59;;;26.48;47.70
24746;BME280;12845;52.042;6.838;2022-08-20T14:05:19;69667.97;;;26.07;48.05
24746;BME280;12845;52.042;6.838;2022-08-20T14:07:45;69624.91;;;25.69;48.32
24746;BME280;12845;52.042;6.838;2022-08-20T14:10:15;69642.56;;;25.82;48.31
24746;BME280;12845;52.042;6.838;2022-08-20T14:12:41;69620.31;;;25.65;47.81
24746;BME280;12845;52.042;6.838;2022-08-20T14:15:07;69566.94;;;25.17;48.66
24746;BME280;12845;52.042;6.838;2022-08-20T14:17:38;69555.03;;;25.09;49.59
24746;BME280;12845;52.042;6.838;2022-08-20T14:20:10;69531.97;;;24.86;50.01
24746;BME280;12845;52.042;6.838;2022-08-20T14:22:36;69554.44;;;25.09;51.45
24746;BME280;12845;52.042;6.838;2022-08-20T14:25:02;69556.91;;;25.04;50.88
24746;BME280;12845;52.042;6.838;2022-08-20T14:27:30;69523.78;;;24.76;51.73
24746;BME280;12845;52.042;6.838;2022-08-20T14:29:56;69535.41;;;24.89;51.42
24746;BME280;12845;52.042;6.838;2022-08-20T14:32:22;69513.75;;;24.72;52.84
24746;BME280;12845;52.042;6.838;2022-08-20T14:34:47;69511.44;;;24.70;52.81
24746;BME280;12845;52.042;6.838;2022-08-20T14:37:16;69531.66;;;24.81;52.56
24746;BME280;12845;52.042;6.838;2022-08-20T14:39:44;69540.56;;;24.94;53.01
24746;BME280;12845;52.042;6.838;2022-08-20T14:42:10;69530.66;;;24.83;51.67
24746;BME280;12845;52.042;6.838;2022-08-20T14:44:36;69550.03;;;24.97;50.69
24746;BME280;12845;52.042;6.838;2022-08-20T14:47:22;69533.09;;;24.87;49.58
24746;BME280;12845;52.042;6.838;2022-08-20T14:49:49;69539.41;;;24.93;50.13
24746;BME280;12845;52.042;6.838;2022-08-20T14:52:15;69531.25;;;24.83;52.44
24746;BME280;12845;52.042;6.838;2022-08-20T14:54:42;69533.66;;;24.88;51.97
24746;BME280;12845;52.042;6.838;2022-08-20T14:57:08;69565.97;;;25.19;48.85
24746;BME280;12845;52.042;6.838;2022-08-20T14:59:34;69608.81;;;25.55;48.41
24746;BME280;12845;52.042;6.838;2022-08-20T15:02:03;69651.34;;;25.93;47.50
24746;BME280;12845;52.042;6.838;2022-08-20T15:04:28;69679.28;;;26.15;46.69
24746;BME280;12845;52.042;6.838;2022-08-20T15:06:54;69670.25;;;26.09;45.42
24746;BME280;12845;52.042;6.838;2022-08-20T15:09:19;69661.09;;;26.01;48.24
24746;BME280;12845;52.042;6.838;2022-08-20T15:11:45;69690.78;;;26.25;45.40
24746;BME280;12845;52.042;6.838;2022-08-20T15:14:10;69700.13;;;26.36;45.88
24746;BME280;12845;52.042;6.838;2022-08-20T15:16:36;69665.38;;;26.00;45.96
24746;BME280;12845;52.042;6.838;2022-08-20T15:19:02;69648.88;;;25.88;46.72
24746;BME280;12845;52.042;6.838;2022-08-20T15:21:27;69654.06;;;25.93;48.08
24746;BME280;12845;52.042;6.838;2022-08-20T15:23:53;69628.78;;;25.70;47.32
24746;BME280;12845;52.042;6.838;2022-08-20T15:26:18;69601.22;;;25.46;47.79
24746;BME280;12845;52.042;6.838;2022-08-20T15:28:44;69599.06;;;25.46;48.74
24746;BME280;12845;52.042;6.838;2022-08-20T15:31:11;69662.66;;;26.00;49.96
24746;BME280;12845;52.042;6.838;2022-08-20T15:33:37;69694.81;;;26.29;46.12
24746;BME280;12845;52.042;6.838;2022-08-20T15:36:08;69727.13;;;26.60;46.91
24746;BME280;12845;52.042;6.838;2022-08-20T15:38:34;69748.94;;;26.80;46.35
24746;BME280;12845;52.042;6.838;2022-08-20T15:40:59;69739.88;;;26.74;43.71
24746;BME280;12845;52.042;6.838;2022-08-20T15:43:29;69724.81;;;26.58;45.86
24746;BME280;12845;52.042;6.838;2022-08-20T15:45:59;69733.00;;;26.68;44.18
24746;BME280;12845;52.042;6.838;2022-08-20T15:48:34;69700.69;;;26.37;43.89
24746;BME280;12845;52.042;6.838;2022-08-20T16:14:30;69556.03;;;25.08;50.34
24746;BME280;12845;52.042;6.838;2022-08-20T16:16:35;69604.69;;;25.49;48.15
24746;BME280;12845;52.042;6.838;2022-08-20T16:19:01;69612.72;;;25.56;46.75
24746;BME280;12845;52.042;6.838;2022-08-20T16:21:33;69582.44;;;25.31;46.75